Airfield :
LOGIN :

Register | Disclaimer

   EN    FR    IT 

 










Legend :    VFR   Marginal VFR   IFR   Intensive IFR   Very Intensive IFR
Visi :
Ceiling :
>= 8 km
>= 3000ft
5 to 8 km
1000 to 3000 ft
1500m to 5 km
500 to 1000 ft
800 to 1500m
200 to 500 ft
< 800m
< 200 ft
Symbols :   Thunderstorms  Fog  Heavy snow  Heavy precipitations  Wind > 20 kt
SIGMETs :     Misc.  Thunderstorms  Icing  Turbulence  Mountain Waves  Volcanic Ashes







- Airport Elevation : 183 ft


LIBA - Amendola Foggia

CURRENT METAR :
  • 161655Z 08007KT 9999 FEW030 SCT050 29/25 Q1012 RMK BKN VIS MIN 9999 WIND THR11 10005KT WIND THR29 /////KT BLU

EXPIRED METARs :
  • 161555Z 10008KT 9999 FEW030 SCT050 30/21 Q1012 RMK BKN VIS MIN 9999 WIND THR11 09008KT WIND THR29 /////KT BLU
  • 161455Z 09010KT 9999 FEW030 30/21 Q1012 RMK BKN SCT110 BKN180 VIS MIN 9999 WIND THR11 10011KT WIND THR29 /////KT BLU

TAF TAF LIBA
Valid from the 16 at 18:00 until the 17 at 03:00 UTC


161700Z 1618/1703 09012KT 9999 FEW030 SCT060
TEMPO 1618/1624 RA BKN060
BECMG 1700/1702 28008KT SCT025 BKN060
TEMPO 1702/1703 6000 RA OR TSRA FEW030CB BKN040
No reported NOTAMs for that airfield.
2 SIGMETs reported for the Brindisi FIR (LIBB) :
 
Severe icing
LIBB SIGMET 7 VALID 161610/162010 LIIB
LIBB BRINDISI FIR SEV ICE FCST WI N4032 E01532 - N4157 E01601 - N4329 E01431 - N4332 E01320 - N4303 E01304 - N4125 E01429 - N4116 E01507 - N4032 E01532 ABV FL200 STNR NC=
Severe turbulence
LIBB SIGMET 6 VALID 161610/162010 LIIB
LIBB BRINDISI FIR SEV TURB FCST N OF LINE N4122 E01415 - N4216 E01657 ABV FL260 STNR NC=



MET'MAP, your aeronautical weather chart ! - Copyright ORBIFLY December 2007 - Disclaimer

ORBIFLY MET'MAP TEAM :

Programming & Development : Alexandra Zaïnal
Concept & Development : Baudouin d'Aumeries
Co-Development & Prog : Marc-Olivier Méhu
Technical & hardware support : Manuel Goepfert

Contact : metmap@orbifly.com




SOURCES & CREDITS :

   NOAA